createdAt,value
2019-06-10T00:00:41.924Z,100.00
2019-06-10T00:03:11.736Z,100.00
2019-06-10T00:05:41.356Z,100.00
2019-06-10T00:08:11.809Z,100.00
2019-06-10T00:10:42.051Z,100.00
2019-06-10T00:13:11.937Z,100.00
2019-06-10T00:15:41.514Z,100.00
2019-06-10T00:18:34.012Z,100.00
2019-06-10T00:20:41.369Z,100.00
2019-06-10T00:23:12.338Z,100.00
2019-06-10T00:25:41.870Z,100.00
2019-06-10T00:28:11.977Z,100.00
2019-06-10T00:30:41.687Z,100.00
2019-06-10T00:33:12.514Z,100.00
2019-06-10T00:35:41.433Z,100.00
2019-06-10T00:38:13.980Z,100.00
2019-06-10T00:40:41.525Z,100.00
2019-06-10T00:43:13.099Z,100.00
2019-06-10T00:45:41.424Z,100.00
2019-06-10T00:48:20.189Z,100.00
2019-06-10T00:50:41.537Z,100.00
2019-06-10T00:53:14.267Z,100.00
2019-06-10T00:55:41.763Z,100.00
2019-06-10T00:58:13.378Z,100.00
2019-06-10T01:00:41.554Z,100.00
2019-06-10T01:03:13.467Z,100.00
2019-06-10T01:05:42.158Z,100.00
2019-06-10T01:08:13.893Z,100.00
2019-06-10T01:10:43.810Z,100.00
2019-06-10T01:13:14.000Z,100.00
2019-06-10T01:15:42.847Z,100.00
2019-06-10T01:18:30.473Z,100.00
2019-06-10T01:20:42.043Z,100.00
2019-06-10T01:23:13.568Z,100.00
2019-06-10T01:25:42.538Z,100.00
2019-06-10T01:28:14.555Z,100.00
2019-06-10T01:30:42.123Z,100.00
2019-06-10T01:33:12.745Z,100.00
2019-06-10T01:35:41.753Z,100.00
2019-06-10T01:38:13.404Z,100.00
2019-06-10T01:40:42.533Z,100.00
2019-06-10T01:43:14.102Z,100.00
2019-06-10T01:45:43.448Z,100.00
2019-06-10T01:48:14.912Z,100.00
2019-06-10T01:50:42.662Z,100.00
2019-06-10T01:53:13.783Z,100.00
2019-06-10T01:55:42.154Z,100.00
2019-06-10T01:58:14.653Z,100.00
2019-06-10T02:00:46.123Z,100.00
2019-06-10T02:03:17.073Z,100.00
2019-06-10T02:05:45.427Z,100.00
2019-06-10T02:08:15.905Z,100.00
2019-06-10T02:10:44.771Z,100.00
2019-06-10T02:13:33.227Z,100.00
2019-06-10T02:16:04.511Z,100.00
2019-06-10T02:18:33.181Z,100.00
2019-06-10T02:21:01.816Z,100.00
2019-06-10T02:23:31.318Z,100.00
2019-06-10T02:26:01.639Z,100.00
2019-06-10T02:28:31.673Z,100.00
2019-06-10T02:31:03.683Z,100.00
2019-06-10T02:33:35.985Z,100.00
2019-06-10T02:36:04.251Z,100.00
2019-06-10T02:38:38.912Z,100.00
2019-06-10T02:41:04.396Z,100.00
2019-06-10T02:43:37.495Z,100.00
2019-06-10T02:46:05.100Z,100.00
2019-06-10T02:48:35.343Z,100.00
2019-06-10T02:51:06.700Z,100.00
2019-06-10T02:53:37.017Z,100.00
2019-06-10T02:56:06.674Z,100.00
2019-06-10T02:58:39.473Z,100.00
2019-06-10T03:01:07.326Z,100.00
2019-06-10T03:03:43.645Z,100.00
2019-06-10T03:06:08.793Z,100.00
2019-06-10T03:08:37.210Z,100.00
2019-06-10T03:11:06.139Z,100.00
2019-06-10T03:13:34.907Z,100.00
2019-06-10T03:16:17.823Z,100.00
2019-06-10T03:18:46.632Z,100.00
2019-06-10T03:21:15.970Z,100.00
2019-06-10T03:23:44.800Z,100.00
2019-06-10T03:26:13.423Z,100.00
2019-06-10T03:28:42.739Z,100.00
2019-06-10T03:31:15.125Z,100.00
2019-06-10T03:33:47.292Z,100.00
2019-06-10T03:36:12.633Z,100.00
2019-06-10T03:38:43.279Z,100.00
2019-06-10T03:41:12.454Z,100.00
2019-06-10T03:43:43.013Z,100.00
2019-06-10T03:46:13.546Z,100.00
2019-06-10T03:48:43.274Z,100.00
2019-06-10T03:51:12.669Z,100.00
2019-06-10T03:53:42.650Z,100.00
2019-06-10T03:56:12.818Z,100.00
2019-06-10T03:58:43.116Z,100.00
2019-06-10T04:01:12.565Z,100.00
2019-06-10T04:03:42.827Z,100.00
2019-06-10T04:06:12.947Z,100.00
2019-06-10T04:08:43.286Z,100.00
2019-06-10T04:11:12.494Z,100.00
2019-06-10T04:13:43.076Z,100.00
2019-06-10T04:16:13.075Z,100.00
2019-06-10T04:18:42.990Z,100.00
2019-06-10T04:21:12.827Z,100.00
2019-06-10T04:23:42.341Z,100.00
2019-06-10T04:26:12.770Z,100.00
2019-06-10T04:28:42.962Z,100.00
2019-06-10T04:31:13.168Z,100.00
2019-06-10T04:33:42.348Z,100.00
2019-06-10T04:36:13.412Z,100.00
2019-06-10T04:38:43.362Z,100.00
2019-06-10T04:41:12.737Z,100.00
2019-06-10T04:43:43.245Z,100.00
2019-06-10T04:46:12.677Z,100.00
2019-06-10T04:48:42.653Z,100.00
2019-06-10T04:51:12.967Z,100.00
2019-06-10T04:53:43.521Z,100.00
2019-06-10T04:56:12.535Z,100.00
2019-06-10T04:58:43.226Z,100.00
2019-06-10T05:01:12.405Z,100.00
2019-06-10T05:03:43.304Z,100.00
2019-06-10T05:06:12.285Z,100.00
2019-06-10T05:08:42.616Z,100.00
2019-06-10T05:11:12.877Z,100.00
2019-06-10T05:13:42.917Z,100.00
2019-06-10T05:16:12.734Z,100.00
2019-06-10T05:18:42.408Z,100.00
2019-06-10T05:21:13.043Z,100.00
2019-06-10T05:23:43.014Z,100.00
2019-06-10T05:26:13.300Z,100.00
2019-06-10T05:28:43.176Z,100.00
2019-06-10T05:31:12.893Z,100.00
2019-06-10T05:33:42.560Z,100.00
2019-06-10T05:36:13.230Z,100.00
2019-06-10T05:38:43.455Z,100.00
2019-06-10T05:41:13.381Z,100.00
2019-06-10T05:43:43.002Z,100.00
2019-06-10T05:46:13.653Z,100.00
2019-06-10T05:48:43.744Z,100.00
2019-06-10T05:51:12.815Z,100.00
2019-06-10T05:53:42.613Z,100.00
2019-06-10T05:56:12.830Z,100.00
2019-06-10T05:58:43.578Z,100.00
2019-06-10T06:01:13.177Z,100.00
2019-06-10T06:03:43.971Z,100.00
2019-06-10T06:06:12.842Z,100.00
2019-06-10T06:08:42.975Z,100.00
2019-06-10T06:11:12.642Z,100.00
2019-06-10T06:13:43.226Z,100.00
2019-06-10T06:16:12.583Z,100.00
2019-06-10T06:18:42.194Z,100.00
2019-06-10T06:21:22.321Z,100.00
2019-06-10T06:23:43.668Z,100.00
2019-06-10T06:26:16.207Z,100.00
2019-06-10T06:28:42.983Z,100.00
2019-06-10T06:31:12.787Z,100.00
2019-06-10T06:33:43.210Z,100.00
2019-06-10T06:36:12.720Z,100.00
2019-06-10T06:38:43.877Z,100.00
2019-06-10T06:41:13.650Z,95.53
2019-06-10T06:43:45.212Z,99.48
2019-06-10T06:46:13.075Z,100.00
2019-06-10T06:48:43.803Z,94.65
2019-06-10T06:51:12.972Z,92.70
2019-06-10T06:53:50.630Z,94.35
2019-06-10T06:56:12.720Z,86.16
2019-06-10T06:58:43.535Z,87.53
2019-06-10T07:01:14.607Z,89.42
2019-06-10T07:03:45.109Z,88.38
2019-06-10T07:06:14.569Z,87.13
2019-06-10T07:09:00.312Z,87.65
2019-06-10T07:11:18.639Z,88.67
2019-06-10T07:13:47.459Z,87.54
2019-06-10T07:16:16.206Z,82.24
2019-06-10T07:18:49.864Z,85.01
2019-06-10T07:21:15.263Z,86.71
2019-06-10T07:23:46.611Z,85.88
2019-06-10T07:26:14.959Z,85.28
2019-06-10T07:28:47.118Z,82.38
2019-06-10T07:31:23.150Z,84.85
2019-06-10T07:33:46.866Z,83.15
2019-06-10T07:36:14.935Z,89.29
2019-06-10T07:38:48.645Z,87.11
2019-06-10T07:41:13.951Z,83.18
2019-06-10T07:43:49.319Z,84.50
2019-06-10T07:46:13.602Z,79.99
2019-06-10T07:48:47.838Z,78.09
2019-06-10T07:51:14.450Z,84.03
2019-06-10T07:53:46.571Z,83.40
2019-06-10T07:56:13.544Z,80.35
2019-06-10T07:58:47.020Z,83.65
2019-06-10T08:01:13.113Z,77.61
2019-06-10T08:03:46.003Z,75.14
2019-06-10T08:06:12.845Z,71.51
2019-06-10T08:08:44.784Z,78.55
2019-06-10T08:11:13.705Z,77.65
2019-06-10T08:13:45.866Z,73.07
2019-06-10T08:16:13.313Z,75.46
2019-06-10T08:19:13.844Z,76.43
2019-06-10T08:21:12.655Z,74.30
2019-06-10T08:23:44.746Z,74.00
2019-06-10T08:26:12.692Z,78.02
2019-06-10T08:28:42.572Z,71.70
2019-06-10T08:31:12.469Z,63.04
2019-06-10T08:33:44.317Z,65.48
2019-06-10T08:36:13.588Z,70.43
2019-06-10T08:38:44.689Z,72.86
2019-06-10T08:41:12.571Z,71.31
2019-06-10T08:43:44.752Z,70.70
2019-06-10T08:46:16.956Z,71.47
2019-06-10T08:48:47.691Z,69.58
2019-06-10T08:51:16.131Z,63.97
2019-06-10T08:53:46.928Z,72.07
2019-06-10T08:56:26.335Z,70.98
2019-06-10T08:58:55.404Z,70.31
2019-06-10T09:01:24.110Z,76.68
2019-06-10T09:03:53.721Z,75.38
2019-06-10T09:06:23.244Z,72.36
2019-06-10T09:08:54.432Z,69.91
2019-06-10T09:11:23.741Z,70.22
2019-06-10T09:13:53.203Z,70.26
2019-06-10T09:16:23.020Z,70.11
2019-06-10T09:18:54.924Z,69.25
2019-06-10T09:21:22.466Z,73.06
2019-06-10T09:23:58.573Z,69.97
2019-06-10T09:26:23.002Z,68.90
2019-06-10T09:28:55.777Z,69.06
2019-06-10T09:31:23.977Z,60.44
2019-06-10T09:33:56.636Z,58.60
2019-06-10T09:36:23.703Z,58.52
2019-06-10T09:38:54.994Z,61.50
2019-06-10T09:41:36.061Z,54.79
2019-06-10T09:43:57.007Z,56.78
2019-06-10T09:46:24.231Z,66.23
2019-06-10T09:48:55.864Z,57.15
2019-06-10T09:51:23.306Z,60.48
2019-06-10T09:54:02.369Z,50.76
2019-06-10T09:56:23.423Z,47.89
2019-06-10T09:58:55.134Z,44.85
2019-06-10T10:01:24.503Z,47.54
2019-06-10T10:03:59.383Z,43.59
2019-06-10T10:06:24.607Z,45.96
2019-06-10T10:08:58.376Z,42.56
2019-06-10T10:11:28.307Z,41.48
2019-06-10T10:13:55.047Z,41.25
2019-06-10T10:16:23.711Z,45.01
2019-06-10T10:19:00.237Z,42.07
2019-06-10T10:21:22.739Z,39.98
2019-06-10T10:24:06.286Z,40.23
2019-06-10T10:26:21.807Z,42.86
2019-06-10T10:28:53.224Z,40.84
2019-06-10T10:31:23.011Z,41.88
2019-06-10T10:33:52.576Z,42.30
2019-06-10T10:36:22.655Z,42.52
2019-06-10T10:38:52.325Z,44.04
2019-06-10T10:41:23.478Z,44.86
2019-06-10T10:43:56.550Z,41.03
2019-06-10T10:46:23.109Z,42.00
2019-06-10T10:48:56.677Z,43.94
2019-06-10T10:51:32.520Z,41.18
2019-06-10T10:54:21.001Z,43.86
2019-06-10T10:56:33.381Z,41.06
2019-06-10T10:59:02.142Z,40.63
2019-06-10T11:01:33.131Z,42.76
2019-06-10T11:04:03.041Z,40.13
2019-06-10T11:06:32.263Z,41.25
2019-06-10T11:09:01.147Z,48.17
2019-06-10T11:11:33.139Z,58.43
2019-06-10T11:14:03.459Z,54.87
2019-06-10T11:16:33.162Z,56.66
2019-06-10T11:19:02.689Z,55.05
2019-06-10T11:21:33.013Z,59.13
2019-06-10T11:24:04.619Z,57.65
2019-06-10T11:26:33.007Z,58.54
2019-06-10T11:29:03.075Z,67.31
2019-06-10T11:31:32.813Z,69.21
2019-06-10T11:34:03.854Z,68.68
2019-06-10T11:36:32.766Z,70.91
2019-06-10T11:39:02.828Z,69.29
2019-06-10T11:41:32.517Z,67.23
2019-06-10T11:44:01.366Z,67.16
2019-06-10T11:46:32.309Z,68.09
2019-06-10T11:49:02.914Z,63.57
2019-06-10T11:51:30.732Z,61.47
2019-06-10T11:53:59.578Z,58.62
2019-06-10T11:56:28.274Z,49.41
2019-06-10T11:58:59.224Z,44.24
2019-06-10T12:01:27.389Z,39.75
2019-06-10T12:03:59.251Z,38.63
2019-06-10T12:06:27.967Z,36.00
2019-06-10T12:09:00.416Z,34.77
2019-06-10T12:11:27.401Z,37.35
2019-06-10T12:14:01.928Z,41.78
2019-06-10T12:17:15.635Z,36.37
2019-06-10T12:18:58.572Z,34.71
2019-06-10T12:21:27.356Z,34.63
2019-06-10T12:24:00.510Z,34.51
2019-06-10T12:26:26.605Z,35.86
2019-06-10T12:28:58.746Z,33.88
2019-06-10T12:31:25.647Z,34.19
2019-06-10T12:33:57.189Z,35.72
2019-06-10T12:36:24.805Z,35.86
2019-06-10T12:38:58.289Z,34.90
2019-06-10T12:41:23.878Z,34.74
2019-06-10T12:43:53.540Z,35.95
2019-06-10T12:46:23.406Z,35.57
2019-06-10T12:48:54.923Z,35.71
2019-06-10T12:51:22.929Z,36.06
2019-06-10T12:53:53.284Z,36.80
2019-06-10T12:56:22.816Z,37.12
2019-06-10T12:58:54.114Z,32.75
2019-06-10T13:01:22.147Z,33.44
2019-06-10T13:03:53.621Z,34.85
2019-06-10T13:06:23.557Z,35.78
2019-06-10T13:08:53.415Z,37.86
2019-06-10T13:11:23.411Z,40.18
2019-06-10T13:13:53.015Z,45.38
2019-06-10T13:16:22.050Z,47.83
2019-06-10T13:18:52.510Z,40.80
2019-06-10T13:21:22.807Z,43.07
2019-06-10T13:23:54.143Z,42.93
2019-06-10T13:26:23.274Z,42.09
2019-06-10T13:28:52.579Z,42.19
2019-06-10T13:31:23.583Z,42.42
2019-06-10T13:33:52.949Z,47.67
2019-06-10T13:36:25.576Z,37.55
2019-06-10T13:38:53.786Z,40.26
2019-06-10T13:41:22.834Z,37.47
2019-06-10T13:43:52.690Z,38.71
2019-06-10T13:46:24.588Z,38.68
2019-06-10T13:48:52.769Z,39.06
2019-06-10T13:51:21.422Z,40.40
2019-06-10T13:53:50.085Z,40.08
2019-06-10T13:56:39.597Z,41.50
2019-06-10T13:58:49.476Z,43.00
2019-06-10T14:01:21.980Z,42.74
2019-06-10T14:03:48.594Z,43.18
2019-06-10T14:06:37.117Z,47.34
2019-06-10T14:08:47.725Z,47.26
2019-06-10T14:11:16.640Z,46.94
2019-06-10T14:13:45.268Z,45.18
2019-06-10T14:16:15.151Z,39.69
2019-06-10T14:18:43.914Z,48.17
2019-06-10T14:21:17.968Z,49.82
2019-06-10T14:23:43.348Z,45.74
2019-06-10T14:26:16.679Z,46.21
2019-06-10T14:28:44.427Z,36.28
2019-06-10T14:31:33.709Z,36.04
2019-06-10T14:33:44.865Z,37.81
2019-06-10T14:36:16.651Z,38.50
2019-06-10T14:38:43.933Z,41.41
2019-06-10T14:41:12.616Z,40.34
2019-06-10T14:43:42.388Z,37.92
2019-06-10T14:46:14.404Z,37.68
2019-06-10T14:48:42.652Z,37.33
2019-06-10T14:51:14.017Z,38.05
2019-06-10T14:53:42.723Z,38.12
2019-06-10T14:56:14.883Z,39.69
2019-06-10T14:58:42.514Z,38.49
2019-06-10T15:01:17.874Z,47.07
2019-06-10T15:03:42.978Z,41.00
2019-06-10T15:06:11.911Z,34.90
2019-06-10T15:08:42.704Z,37.36
2019-06-10T15:11:11.687Z,38.96
2019-06-10T15:13:43.255Z,38.06
2019-06-10T15:16:12.193Z,36.07
2019-06-10T15:18:43.176Z,36.27
2019-06-10T15:21:11.545Z,37.40
2019-06-10T15:23:42.732Z,36.70
2019-06-10T15:26:13.140Z,35.08
2019-06-10T15:28:42.730Z,36.71
2019-06-10T15:31:13.539Z,35.56
2019-06-10T15:33:43.014Z,35.70
2019-06-10T15:36:13.198Z,37.96
2019-06-10T15:38:44.067Z,38.48
2019-06-10T15:41:16.047Z,40.27
2019-06-10T15:43:42.964Z,40.14
2019-06-10T15:46:12.945Z,36.74
2019-06-10T15:48:47.103Z,37.05
2019-06-10T15:51:19.249Z,38.37
2019-06-10T15:53:46.177Z,41.43
2019-06-10T15:56:27.031Z,41.24
2019-06-10T15:58:45.184Z,40.42
2019-06-10T16:01:16.475Z,40.18
2019-06-10T16:03:44.222Z,36.26
2019-06-10T16:06:13.909Z,35.72
2019-06-10T16:08:43.218Z,35.89
2019-06-10T16:11:15.416Z,35.74
2019-06-10T16:13:44.994Z,37.28
2019-06-10T16:16:14.784Z,38.31
2019-06-10T16:18:44.226Z,37.03
2019-06-10T16:21:15.226Z,36.88
2019-06-10T16:23:43.315Z,37.35
2019-06-10T16:26:13.049Z,37.94
2019-06-10T16:28:42.807Z,37.86
2019-06-10T16:31:13.168Z,38.14
2019-06-10T16:33:49.178Z,38.41
2019-06-10T16:36:12.495Z,36.73
2019-06-10T16:38:42.300Z,38.87
2019-06-10T16:41:12.291Z,37.64
2019-06-10T16:43:42.851Z,34.56
2019-06-10T16:46:13.099Z,34.11
2019-06-10T16:48:44.199Z,35.39
2019-06-10T16:51:13.435Z,33.25
2019-06-10T16:53:42.719Z,34.33
2019-06-10T16:56:12.177Z,33.45
2019-06-10T16:58:43.113Z,34.94
2019-06-10T17:01:12.453Z,35.14
2019-06-10T17:03:42.999Z,35.13
2019-06-10T17:06:13.065Z,37.00
2019-06-10T17:08:42.597Z,36.81
2019-06-10T17:11:12.386Z,37.81
2019-06-10T17:13:42.301Z,36.38
2019-06-10T17:16:12.779Z,39.06
2019-06-10T17:18:41.789Z,39.33
2019-06-10T17:21:13.037Z,38.60
2019-06-10T17:23:43.143Z,37.64
2019-06-10T17:26:11.312Z,39.32
2019-06-10T17:28:42.629Z,38.29
2019-06-10T17:31:10.384Z,41.40
2019-06-10T17:33:39.081Z,50.36
2019-06-10T17:36:07.775Z,55.87
2019-06-10T17:38:36.428Z,54.21
2019-06-10T17:41:05.133Z,54.82
2019-06-10T17:43:34.548Z,48.66
2019-06-10T17:46:03.588Z,50.04
2019-06-10T17:48:33.686Z,53.44
2019-06-10T17:51:03.622Z,59.45
2019-06-10T17:53:34.677Z,62.18
2019-06-10T17:56:04.506Z,60.77
2019-06-10T17:58:49.996Z,62.24
2019-06-10T18:01:03.627Z,64.95
2019-06-10T18:03:33.436Z,66.35
2019-06-10T18:06:02.909Z,67.12
2019-06-10T18:08:34.954Z,68.23
2019-06-10T18:11:03.267Z,74.15
2019-06-10T18:13:34.292Z,71.19
2019-06-10T18:16:02.982Z,77.33
2019-06-10T18:18:36.551Z,73.32
2019-06-10T18:21:03.459Z,65.76
2019-06-10T18:23:35.156Z,68.16
2019-06-10T18:26:04.250Z,68.62
2019-06-10T18:28:45.579Z,74.24
2019-06-10T18:31:03.595Z,74.21
2019-06-10T18:33:34.977Z,76.86
2019-06-10T18:36:02.658Z,77.00
2019-06-10T18:38:33.993Z,76.27
2019-06-10T18:41:03.223Z,74.08
2019-06-10T18:43:34.986Z,74.63
2019-06-10T18:46:03.500Z,74.87
2019-06-10T18:48:35.963Z,79.50
2019-06-10T18:51:02.859Z,80.03
2019-06-10T18:53:33.533Z,82.07
2019-06-10T18:56:02.138Z,84.26
2019-06-10T18:58:34.318Z,83.11
2019-06-10T19:01:07.042Z,83.19
2019-06-10T19:03:34.691Z,83.64
2019-06-10T19:06:02.319Z,82.48
2019-06-10T19:08:33.698Z,82.97
2019-06-10T19:11:02.400Z,84.01
2019-06-10T19:13:35.327Z,87.38
2019-06-10T19:16:03.466Z,91.75
2019-06-10T19:18:33.904Z,96.09
2019-06-10T19:21:04.290Z,97.03
2019-06-10T19:23:35.070Z,98.85
2019-06-10T19:26:05.143Z,96.32
2019-06-10T19:28:37.058Z,95.17
2019-06-10T19:31:04.274Z,96.50
2019-06-10T19:33:35.764Z,100.00
2019-06-10T19:36:03.386Z,100.00
2019-06-10T19:38:33.973Z,100.00
2019-06-10T19:41:02.817Z,100.00
2019-06-10T19:43:34.605Z,100.00
2019-06-10T19:46:04.303Z,100.00
2019-06-10T19:48:36.318Z,96.85
2019-06-10T19:51:03.259Z,98.75
2019-06-10T19:53:33.044Z,100.00
2019-06-10T19:56:02.678Z,100.00
2019-06-10T19:58:32.376Z,100.00
2019-06-10T20:01:01.353Z,100.00
2019-06-10T20:03:32.521Z,100.00
2019-06-10T20:06:02.880Z,100.00
2019-06-10T20:08:33.068Z,100.00
2019-06-10T20:11:03.474Z,100.00
2019-06-10T20:13:32.462Z,100.00
2019-06-10T20:16:02.965Z,100.00
2019-06-10T20:18:33.194Z,100.00
2019-06-10T20:21:02.679Z,100.00
2019-06-10T20:23:33.305Z,100.00
2019-06-10T20:26:02.347Z,100.00
2019-06-10T20:28:32.168Z,100.00
2019-06-10T20:31:00.970Z,100.00
2019-06-10T20:33:35.868Z,100.00
2019-06-10T20:36:06.299Z,100.00
2019-06-10T20:38:32.589Z,100.00
2019-06-10T20:41:02.645Z,100.00
2019-06-10T20:43:32.795Z,100.00
2019-06-10T20:46:05.322Z,100.00
2019-06-10T20:48:33.220Z,100.00
2019-06-10T20:51:03.095Z,100.00
2019-06-10T20:53:33.869Z,100.00
2019-06-10T20:56:03.721Z,100.00
2019-06-10T20:58:33.214Z,100.00
2019-06-10T21:01:04.704Z,100.00
2019-06-10T21:03:32.645Z,100.00
2019-06-10T21:06:03.398Z,100.00
2019-06-10T21:08:33.841Z,100.00
2019-06-10T21:11:03.121Z,100.00
2019-06-10T21:13:32.837Z,100.00
2019-06-10T21:16:03.672Z,100.00
2019-06-10T21:18:33.026Z,100.00
2019-06-10T21:21:02.093Z,100.00
2019-06-10T21:23:30.847Z,100.00
2019-06-10T21:26:02.558Z,100.00
2019-06-10T21:28:32.433Z,100.00
2019-06-10T21:31:02.669Z,100.00
2019-06-10T21:33:33.239Z,100.00
2019-06-10T21:36:03.848Z,100.00
2019-06-10T21:38:32.340Z,100.00
2019-06-10T21:41:03.256Z,100.00
2019-06-10T21:43:33.043Z,100.00
2019-06-10T21:46:03.656Z,100.00
2019-06-10T21:48:32.487Z,100.00
2019-06-10T21:51:01.437Z,100.00
2019-06-10T21:53:30.140Z,100.00
2019-06-10T21:55:58.816Z,100.00
2019-06-10T21:58:27.519Z,100.00
2019-06-10T22:01:09.776Z,100.00
2019-06-10T22:03:26.803Z,100.00
2019-06-10T22:05:55.457Z,100.00
2019-06-10T22:08:24.208Z,100.00
2019-06-10T22:10:55.044Z,100.00
2019-06-10T22:13:23.269Z,100.00
2019-06-10T22:15:54.873Z,100.00
2019-06-10T22:18:22.875Z,100.00
2019-06-10T22:20:56.010Z,100.00
2019-06-10T22:23:23.240Z,100.00
2019-06-10T22:25:55.612Z,100.00
2019-06-10T22:28:22.657Z,100.00
2019-06-10T22:30:54.103Z,100.00
2019-06-10T22:33:22.659Z,100.00
2019-06-10T22:35:55.410Z,100.00
2019-06-10T22:38:22.274Z,100.00
2019-06-10T22:40:53.634Z,100.00
2019-06-10T22:43:23.536Z,100.00
2019-06-10T22:45:55.197Z,100.00
2019-06-10T22:48:22.596Z,100.00
2019-06-10T22:50:51.427Z,100.00
2019-06-10T22:53:22.964Z,100.00
2019-06-10T22:55:53.022Z,100.00
2019-06-10T22:58:23.678Z,100.00
2019-06-10T23:00:54.838Z,100.00
2019-06-10T23:03:24.189Z,100.00
2019-06-10T23:05:54.344Z,100.00
2019-06-10T23:08:23.210Z,100.00
2019-06-10T23:10:53.768Z,100.00
2019-06-10T23:13:23.066Z,100.00
2019-06-10T23:15:53.960Z,100.00
2019-06-10T23:18:22.591Z,100.00
2019-06-10T23:20:53.920Z,100.00
2019-06-10T23:23:23.343Z,100.00
2019-06-10T23:25:51.976Z,100.00
2019-06-10T23:28:22.222Z,100.00
2019-06-10T23:30:55.273Z,100.00
2019-06-10T23:33:22.951Z,100.00
2019-06-10T23:35:52.620Z,100.00
2019-06-10T23:38:23.583Z,100.00
2019-06-10T23:40:53.226Z,100.00
2019-06-10T23:43:22.537Z,100.00
2019-06-10T23:45:51.400Z,100.00
2019-06-10T23:48:22.534Z,100.00
2019-06-10T23:50:54.100Z,100.00
2019-06-10T23:53:23.032Z,100.00
2019-06-10T23:55:51.822Z,100.00
2019-06-10T23:58:22.846Z,100.00
